Terminal Aerodrome Forecast
Issued by NWS

Home | Current Version | Previous Version | Text Only | Print | Product List | Glossary On
Versions: 1 2 3 4 5 6 7 8 9 10 11 12
000
FTUS45 KVEF 180500
TAFEED
TAF
KEED 180520Z 1806/1906 21011KT P6SM BKN200
     FM181300 VRB05KT P6SM BKN200
     FM181900 19014G24KT P6SM BKN150
     FM190200 15008KT P6SM BKN120=

USA.gov is the U.S. government's official web portal to all federal, state and local government web resources and services.